createdAt,value
2022-07-31T00:02:07.205Z,79.87
2022-07-31T00:06:09.187Z,80.07
2022-07-31T00:10:10.999Z,79.63
2022-07-31T00:14:12.679Z,79.77
2022-07-31T00:18:14.331Z,79.93
2022-07-31T00:22:15.982Z,79.73
2022-07-31T00:26:17.627Z,80.23
2022-07-31T00:30:19.253Z,80.57
2022-07-31T00:34:20.858Z,80.66
2022-07-31T00:38:26.842Z,80.27
2022-07-31T00:42:29.213Z,80.96
2022-07-31T00:46:31.259Z,81.26
2022-07-31T00:50:33.632Z,81.16
2022-07-31T00:54:35.622Z,81.36
2022-07-31T00:58:37.229Z,81.76
2022-07-31T01:02:46.343Z,81.66
2022-07-31T01:06:48.394Z,82.00
2022-07-31T01:11:02.290Z,81.70
2022-07-31T01:15:09.801Z,82.29
2022-07-31T01:19:42.060Z,82.24
2022-07-31T01:24:12.112Z,82.04
2022-07-31T01:29:16.617Z,82.64
2022-07-31T01:33:22.801Z,83.27
2022-07-31T01:37:32.208Z,84.07
2022-07-31T01:41:40.630Z,84.56
2022-07-31T01:45:45.268Z,84.86
2022-07-31T01:49:50.233Z,85.30
2022-07-31T01:53:55.723Z,85.90
2022-07-31T01:57:58.160Z,86.70
2022-07-31T02:02:01.343Z,87.60
2022-07-31T02:06:04.742Z,87.84
2022-07-31T02:10:09.924Z,87.84
2022-07-31T02:14:14.036Z,87.94
2022-07-31T02:18:16.873Z,88.34
2022-07-31T02:22:34.007Z,88.64
2022-07-31T02:26:36.478Z,89.03
2022-07-31T02:30:40.714Z,89.07
2022-07-31T02:34:45.189Z,89.68
2022-07-31T02:38:49.149Z,90.37
2022-07-31T02:42:52.645Z,90.88
2022-07-31T02:46:55.301Z,91.27
2022-07-31T02:50:57.569Z,91.07
2022-07-31T02:54:59.686Z,91.07
2022-07-31T02:59:01.345Z,91.91
2022-07-31T03:03:12.189Z,92.91
2022-07-31T03:07:14.117Z,94.41
2022-07-31T03:11:16.980Z,97.41
2022-07-31T03:15:20.898Z,98.50
2022-07-31T03:19:23.549Z,98.85
2022-07-31T03:23:28.098Z,99.35
2022-07-31T03:27:38.673Z,99.44
2022-07-31T03:31:40.247Z,98.80
2022-07-31T03:35:44.548Z,97.80
2022-07-31T03:39:46.972Z,96.00
2022-07-31T03:43:49.413Z,95.20
2022-07-31T03:47:54.364Z,94.95
2022-07-31T03:51:55.998Z,95.06
2022-07-31T03:55:57.941Z,94.76
2022-07-31T04:00:01.576Z,94.76
2022-07-31T04:04:05.848Z,94.56
2022-07-31T04:08:15.862Z,94.45
2022-07-31T04:12:18.604Z,94.15
2022-07-31T04:16:20.281Z,93.55
2022-07-31T04:20:22.601Z,93.16
2022-07-31T04:24:24.355Z,92.06
2022-07-31T04:28:39.565Z,91.56
2022-07-31T04:32:41.968Z,92.16
2022-07-31T04:36:49.303Z,93.05
2022-07-31T04:40:51.572Z,93.26
2022-07-31T04:44:53.221Z,93.16
2022-07-31T04:48:56.477Z,92.86
2022-07-31T04:53:00.997Z,92.76
2022-07-31T04:57:08.064Z,93.16
2022-07-31T05:01:09.710Z,93.36
2022-07-31T05:05:13.893Z,93.66
2022-07-31T05:09:25.357Z,93.66
2022-07-31T05:13:31.272Z,93.66
2022-07-31T05:17:33.113Z,93.85
2022-07-31T05:21:54.211Z,94.60
2022-07-31T05:26:09.934Z,94.60
2022-07-31T05:30:12.379Z,94.60
2022-07-31T05:34:14.197Z,94.60
2022-07-31T05:38:16.070Z,94.40
2022-07-31T05:42:44.800Z,94.06
2022-07-31T05:47:07.560Z,93.85
2022-07-31T05:51:11.040Z,93.46
2022-07-31T05:55:12.674Z,92.81
2022-07-31T05:59:35.410Z,92.51
2022-07-31T06:03:51.596Z,92.81
2022-07-31T06:08:01.265Z,92.71
2022-07-31T06:12:07.215Z,92.91
2022-07-31T06:16:13.775Z,93.01
2022-07-31T06:20:15.807Z,93.01
2022-07-31T06:24:17.789Z,93.12
2022-07-31T06:28:20.188Z,92.67
2022-07-31T06:32:31.085Z,92.47
2022-07-31T06:36:32.771Z,92.67
2022-07-31T06:40:36.506Z,92.37
2022-07-31T06:45:09.682Z,92.63
2022-07-31T06:49:30.289Z,92.33
2022-07-31T06:53:32.032Z,92.43
2022-07-31T06:57:33.912Z,92.03
2022-07-31T07:01:35.675Z,91.58
2022-07-31T07:05:37.375Z,91.19
2022-07-31T07:09:39.049Z,90.94
2022-07-31T07:13:45.536Z,91.24
2022-07-31T07:17:49.717Z,91.14
2022-07-31T07:22:02.725Z,91.74
2022-07-31T07:26:05.403Z,91.98
2022-07-31T07:30:07.589Z,91.49
2022-07-31T07:34:09.891Z,91.24
2022-07-31T07:38:11.543Z,90.64
2022-07-31T07:42:13.827Z,90.80
2022-07-31T07:46:15.530Z,89.90
2022-07-31T07:50:22.802Z,89.96
2022-07-31T07:54:55.252Z,89.46
2022-07-31T07:59:22.616Z,89.17
2022-07-31T08:03:49.253Z,88.82
2022-07-31T08:07:53.449Z,87.15
2022-07-31T08:12:13.210Z,87.35
2022-07-31T08:16:33.505Z,86.55
2022-07-31T08:20:37.990Z,86.95
2022-07-31T08:24:40.540Z,86.45
2022-07-31T08:28:50.069Z,86.71
2022-07-31T08:32:53.126Z,85.71
2022-07-31T08:36:56.514Z,85.97
2022-07-31T08:40:58.293Z,86.27
2022-07-31T08:45:00.346Z,86.17
2022-07-31T08:49:07.761Z,86.37
2022-07-31T08:53:15.094Z,85.93
2022-07-31T08:57:27.668Z,85.10
2022-07-31T09:01:30.762Z,85.00
2022-07-31T09:05:42.675Z,83.76
2022-07-31T09:09:52.025Z,83.13
2022-07-31T09:14:02.282Z,81.84
2022-07-31T09:18:25.059Z,81.70
2022-07-31T09:22:42.937Z,81.76
2022-07-31T09:26:44.683Z,81.03
2022-07-31T09:30:56.969Z,80.20
2022-07-31T09:35:17.584Z,79.93
2022-07-31T09:39:27.091Z,79.79
2022-07-31T09:44:10.179Z,77.42
2022-07-31T09:48:18.361Z,78.61
2022-07-31T09:52:30.492Z,78.50
2022-07-31T09:56:33.579Z,78.07
2022-07-31T10:00:36.902Z,78.03
2022-07-31T10:04:39.546Z,79.06
2022-07-31T10:08:48.419Z,79.26
2022-07-31T10:13:22.871Z,78.77
2022-07-31T10:17:36.101Z,79.55
2022-07-31T10:21:43.684Z,79.46
2022-07-31T10:26:01.634Z,77.80
2022-07-31T10:30:06.254Z,76.78
2022-07-31T10:34:14.572Z,76.31
2022-07-31T10:38:47.675Z,76.17
2022-07-31T10:43:24.437Z,74.80
2022-07-31T10:47:59.211Z,74.69
2022-07-31T10:52:32.486Z,73.52
2022-07-31T10:57:07.216Z,73.91
2022-07-31T11:01:21.171Z,74.60
2022-07-31T11:06:00.993Z,74.50
2022-07-31T11:10:23.107Z,73.91
2022-07-31T11:14:40.156Z,74.11
2022-07-31T11:19:06.243Z,74.30
2022-07-31T11:23:08.581Z,74.40
2022-07-31T11:27:10.142Z,74.11
2022-07-31T11:31:11.902Z,74.17
2022-07-31T11:35:24.691Z,72.99
2022-07-31T11:39:36.899Z,72.69
2022-07-31T11:43:43.863Z,72.20
2022-07-31T11:48:10.896Z,72.69
2022-07-31T11:52:31.123Z,72.69
2022-07-31T11:56:34.178Z,72.83
2022-07-31T12:00:35.827Z,73.12
2022-07-31T12:04:38.211Z,72.46
2022-07-31T12:08:40.296Z,72.23
2022-07-31T12:12:42.350Z,71.87
2022-07-31T12:16:43.923Z,71.34
2022-07-31T12:20:53.737Z,69.51
2022-07-31T12:25:06.034Z,68.59
2022-07-31T12:29:11.968Z,69.93
2022-07-31T12:33:13.690Z,67.58
2022-07-31T12:37:16.948Z,67.32
2022-07-31T12:41:18.557Z,67.35
2022-07-31T12:45:51.597Z,67.74
2022-07-31T12:49:53.904Z,67.51
2022-07-31T12:53:55.460Z,68.04
2022-07-31T12:57:57.275Z,67.84
2022-07-31T13:01:58.916Z,68.91
2022-07-31T13:06:00.604Z,69.54
2022-07-31T13:10:19.941Z,69.48
2022-07-31T13:14:24.059Z,68.40
2022-07-31T13:18:25.668Z,67.51
2022-07-31T13:22:27.612Z,66.79
2022-07-31T13:26:29.461Z,66.53
2022-07-31T13:30:31.130Z,66.96
2022-07-31T13:34:32.718Z,66.34
2022-07-31T13:38:34.364Z,64.67
2022-07-31T13:42:35.927Z,64.34
2022-07-31T13:46:37.583Z,63.89
2022-07-31T13:50:42.394Z,64.18
2022-07-31T13:54:43.980Z,64.31
2022-07-31T13:58:46.295Z,64.54
2022-07-31T14:02:49.958Z,64.37
2022-07-31T14:06:51.802Z,63.17
2022-07-31T14:10:55.942Z,61.93
2022-07-31T14:14:57.619Z,60.89
2022-07-31T14:18:59.206Z,61.48
2022-07-31T14:23:02.577Z,61.47
2022-07-31T14:27:04.222Z,60.34
2022-07-31T14:31:05.833Z,60.28
2022-07-31T14:35:08.696Z,60.57
2022-07-31T14:39:10.341Z,59.57
2022-07-31T14:43:12.535Z,58.84
2022-07-31T14:47:14.198Z,59.23
2022-07-31T14:51:19.247Z,59.53
2022-07-31T14:55:21.018Z,60.02
2022-07-31T14:59:22.861Z,60.05
2022-07-31T15:03:24.478Z,59.69
2022-07-31T15:07:35.309Z,59.79
2022-07-31T15:12:00.480Z,58.91
2022-07-31T15:15:59.805Z,58.59
2022-07-31T15:20:01.456Z,58.73
2022-07-31T15:24:03.149Z,59.34
2022-07-31T15:28:04.764Z,59.08
2022-07-31T15:32:06.841Z,58.56
2022-07-31T15:36:11.202Z,58.04
2022-07-31T15:40:17.233Z,57.63
2022-07-31T15:44:18.862Z,58.02
2022-07-31T15:48:20.457Z,57.24
2022-07-31T15:52:22.125Z,56.52
2022-07-31T15:56:24.158Z,56.07
2022-07-31T16:00:26.731Z,55.16
2022-07-31T16:04:31.652Z,55.46
2022-07-31T16:08:35.393Z,55.62
2022-07-31T16:12:37.574Z,56.82
2022-07-31T16:16:43.022Z,55.91
2022-07-31T16:20:47.254Z,55.26
2022-07-31T16:24:48.825Z,55.33
2022-07-31T16:28:54.004Z,55.43
2022-07-31T16:32:56.015Z,55.82
2022-07-31T16:36:57.702Z,56.04
2022-07-31T16:40:59.339Z,56.65
2022-07-31T16:45:01.036Z,56.92
2022-07-31T16:49:02.838Z,57.04
2022-07-31T16:54:11.051Z,57.04
2022-07-31T16:57:50.247Z,57.56
2022-07-31T17:01:57.955Z,58.14
2022-07-31T17:06:03.827Z,58.37
2022-07-31T17:10:05.974Z,58.95
2022-07-31T17:14:07.642Z,58.95
2022-07-31T17:18:09.299Z,59.18
2022-07-31T17:22:11.740Z,59.18
2022-07-31T17:26:21.592Z,59.38
2022-07-31T17:30:23.945Z,60.11
2022-07-31T17:34:25.639Z,60.34
2022-07-31T17:38:27.252Z,60.24
2022-07-31T17:42:28.860Z,60.86
2022-07-31T17:46:36.235Z,61.18
2022-07-31T17:50:38.801Z,61.90
2022-07-31T17:54:41.082Z,62.51
2022-07-31T17:58:43.598Z,62.94
2022-07-31T18:02:45.237Z,63.36
2022-07-31T18:06:49.365Z,63.36
2022-07-31T18:10:54.638Z,63.75
2022-07-31T18:14:56.543Z,64.08
2022-07-31T18:18:58.163Z,64.47
2022-07-31T18:22:59.742Z,64.40
2022-07-31T18:27:02.040Z,64.79
2022-07-31T18:31:03.686Z,64.92
2022-07-31T18:35:06.193Z,64.92
2022-07-31T18:39:08.006Z,65.16
2022-07-31T18:43:09.722Z,65.45
2022-07-31T18:47:11.342Z,65.38
2022-07-31T18:51:13.070Z,65.58
2022-07-31T18:55:14.713Z,65.52
2022-07-31T18:59:16.353Z,65.52
2022-07-31T19:03:18.542Z,65.55
2022-07-31T19:07:20.343Z,65.55
2022-07-31T19:11:23.285Z,65.84
2022-07-31T19:15:24.908Z,66.27
2022-07-31T19:19:28.386Z,66.76
2022-07-31T19:23:49.640Z,67.18
2022-07-31T19:27:51.212Z,67.68
2022-07-31T19:31:52.977Z,67.97
2022-07-31T19:36:00.680Z,68.30
2022-07-31T19:40:05.953Z,68.70
2022-07-31T19:44:08.225Z,69.12
2022-07-31T19:48:09.818Z,69.62
2022-07-31T19:52:11.562Z,69.91
2022-07-31T19:56:19.677Z,70.21
2022-07-31T20:00:22.087Z,70.34
2022-07-31T20:04:23.755Z,70.44
2022-07-31T20:08:25.464Z,70.64
2022-07-31T20:12:27.483Z,70.93
2022-07-31T20:16:29.111Z,71.36
2022-07-31T20:20:31.006Z,71.66
2022-07-31T20:24:33.148Z,72.05
2022-07-31T20:28:35.129Z,72.38
2022-07-31T20:32:37.941Z,72.68
2022-07-31T20:36:50.214Z,72.78
2022-07-31T20:40:55.422Z,72.97
2022-07-31T20:44:57.386Z,73.31
2022-07-31T20:49:00.034Z,73.60
2022-07-31T20:53:01.832Z,73.80
2022-07-31T20:57:03.517Z,74.13
2022-07-31T21:01:05.193Z,74.43
2022-07-31T21:05:07.304Z,74.63
2022-07-31T21:09:08.927Z,74.82
2022-07-31T21:13:10.758Z,75.06
2022-07-31T21:17:12.893Z,75.16
2022-07-31T21:21:14.559Z,75.56
2022-07-31T21:25:16.789Z,75.65
2022-07-31T21:29:18.673Z,75.85
2022-07-31T21:33:20.560Z,76.15
2022-07-31T21:37:23.738Z,76.34
2022-07-31T21:41:26.021Z,76.68
2022-07-31T21:45:30.356Z,76.87
2022-07-31T21:49:48.760Z,77.17
2022-07-31T21:53:50.333Z,77.61
2022-07-31T21:57:58.726Z,77.80
2022-07-31T22:02:02.173Z,78.00
2022-07-31T22:06:26.115Z,78.30
2022-07-31T22:10:32.412Z,78.50
2022-07-31T22:14:34.192Z,78.74
2022-07-31T22:18:36.124Z,79.13
2022-07-31T22:22:38.837Z,79.52
2022-07-31T22:27:00.498Z,79.92
2022-07-31T22:31:02.353Z,80.12
2022-07-31T22:35:05.614Z,80.41
2022-07-31T22:39:07.278Z,80.65
2022-07-31T22:44:09.535Z,80.95
2022-07-31T22:47:31.682Z,81.54
2022-07-31T22:51:38.035Z,81.84
2022-07-31T22:55:40.449Z,81.98
2022-07-31T22:59:43.576Z,82.28
2022-07-31T23:03:45.176Z,82.57
2022-07-31T23:07:46.749Z,82.97
2022-07-31T23:11:48.603Z,83.27
2022-07-31T23:15:50.180Z,83.31
2022-07-31T23:19:53.712Z,83.41
2022-07-31T23:23:55.879Z,83.81
2022-07-31T23:27:57.476Z,84.00
2022-07-31T23:31:59.231Z,84.30
2022-07-31T23:36:00.913Z,84.70
2022-07-31T23:40:02.581Z,84.90
2022-07-31T23:44:04.529Z,85.10
2022-07-31T23:48:06.558Z,85.10
2022-07-31T23:52:08.729Z,85.03
2022-07-31T23:56:18.438Z,84.94
